Time;durP1;ratioP1;P1;durP2;ratioP2;P2;SDS_P1;SDS_P2;PMS_P1;PMS_P2;Temp;Humidity;BMP_temperature;BMP_pressure;BME280_temperature;BME280_humidity;BME280_pressure;Samples;Min_cycle;Max_cycle;Signal;HPM_P1;HPM_P2
2023/02/12 00:01:22;;;;;;;;;;;;;;;;;;;;;
2023/02/12 00:05:12;;;;;;;;;;;;;;;;;;;;;
2023/02/12 00:07:09;;;;;;;;;;;;;;;6.10;100.00;101677.72;4997359;28;19925;-86
2023/02/12 00:09:38;;;;;;;;;;;;;;;6.13;100.00;101679.50;4995210;28;19929;-86
2023/02/12 00:12:03;;;;;;;;;;;;;;;6.14;100.00;101678.63;4993748;28;20376;-87
2023/02/12 00:14:37;;;;;;;;;;;;;;;6.16;100.00;101671.63;5013392;28;20017;-89
2023/02/12 00:17:07;;;;;;;;;;;;;;;6.16;100.00;101672.50;5011754;28;20430;-92
2023/02/12 00:19:32;;;;;;;;;;;;;;;6.20;100.00;101667.25;4996030;28;19922;-91
2023/02/12 00:22:15;;;;;;;;;;;;;;;6.19;100.00;101661.13;5014171;28;19982;-94
2023/02/12 00:25:17;;;;;;;;;;;;;;;;;;;;;
2023/02/12 00:27:43;;;;;;;;;;;;;;;6.23;100.00;101657.63;5007093;28;19933;-85
2023/02/12 00:30:08;;;;;;;;;;;;;;;6.25;100.00;101665.53;5013696;28;20329;-87
2023/02/12 00:32:43;;;;;;;;;;;;;;;6.25;100.00;101657.63;4995045;28;19968;-91
2023/02/12 00:35:09;;;;;;;;;;;;;;;6.27;100.00;101653.25;4994853;28;19924;-93
2023/02/12 00:37:40;;;;;;;;;;;;;;;6.28;100.00;101653.25;4996552;28;19925;-87
2023/02/12 00:40:17;;;;;;;;;;;;;;;6.30;100.00;101661.16;5011375;28;20016;-93
2023/02/12 00:43:04;;;;;;;;;;;;;;;6.32;100.00;101656.81;5012749;28;19975;-96
2023/02/12 00:45:32;;;;;;;;;;;;;;;6.33;100.00;101659.44;4996107;28;19996;-85
2023/02/12 00:48:05;;;;;;;;;;;;;;;6.35;100.00;101651.50;5013235;28;19924;-91
2023/02/12 00:50:30;;;;;;;;;;;;;;;6.36;100.00;101664.69;5011713;28;19952;-85
2023/02/12 00:52:58;;;;;;;;;;;;;;;6.36;100.00;101664.69;5011419;28;19949;-89
2023/02/12 00:55:23;;;;;;;;;;;;;;;5.70;100.00;101663.41;5012315;28;19929;-88
2023/02/12 00:57:48;;;;;;;;;;;;;;;5.09;100.00;101678.69;5012641;28;20254;-86
2023/02/12 01:00:33;;;;;;;;;;;;;;;4.88;100.00;101686.31;5012067;28;19928;-91
2023/02/12 01:02:59;;;;;;;;;;;;;;;4.72;100.00;101682.66;4994315;28;19961;-88
2023/02/12 01:05:24;;;;;;;;;;;;;;;4.61;100.00;101673.75;4994201;28;20331;-89
2023/02/12 01:07:50;;;;;;;;;;;;;;;4.48;100.00;101681.50;5011246;28;20012;-88
2023/02/12 01:10:24;;;;;;;;;;;;;;;4.43;100.00;101677.06;5012607;28;20408;-89
2023/02/12 01:12:50;;;;;;;;;;;;;;;4.31;100.00;101688.28;4994396;28;20016;-87
2023/02/12 01:15:33;;;;;;;;;;;;;;;4.24;100.00;101689.94;5012935;28;20012;-88
2023/02/12 01:18:08;;;;;;;;;;;;;;;;;;;;;
2023/02/12 01:23:46;;;;;;;;;;;;;;;4.00;100.00;101686.13;5007958;28;19979;-90
2023/02/12 01:32:50;;;;;;;;;;;;;;;3.85;100.00;101691.13;4926691;29;19919;-87
2023/02/12 01:35:16;;;;;;;;;;;;;;;3.79;100.00;101680.56;4933153;29;19977;-92
2023/02/12 01:37:43;;;;;;;;;;;;;;;3.74;100.00;101684.84;4932036;29;20343;-85
2023/02/12 03:26:24;;;;;;;;;;;;;;;4.76;100.00;101625.81;5497619;23;19926;-90
2023/02/12 03:28:49;;;;;;;;;;;;;;;4.85;100.00;101636.38;4977100;28;19921;-90
2023/02/12 03:31:45;;;;;;;;;;;;;;;4.91;100.00;101626.84;4977245;28;20261;-90
2023/02/12 03:34:52;;;;;;;;;;;;;;;5.00;100.00;101628.66;4975207;28;19957;-91
2023/02/12 03:37:25;;;;;;;;;;;;;;;5.09;100.00;101625.25;4934673;29;20051;-94
2023/02/12 03:39:59;;;;;;;;;;;;;;;5.13;100.00;101632.28;4924604;29;20327;-94
2023/02/12 03:42:33;;;;;;;;;;;;;;;5.19;100.00;101632.34;4970455;28;19980;-94
2023/02/12 03:44:59;;;;;;;;;;;;;;;5.22;100.00;101629.75;4995461;28;20000;-91
2023/02/12 03:47:36;;;;;;;;;;;;;;;5.27;100.00;101628.03;4995621;28;20000;-93
2023/02/12 03:50:22;;;;;;;;;;;;;;;5.31;100.00;101628.91;4975941;28;19917;-93
2023/02/12 03:52:49;;;;;;;;;;;;;;;5.36;100.00;101627.22;4957312;28;19921;-91
2023/02/12 03:55:14;;;;;;;;;;;;;;;5.39;100.00;101629.88;4976444;28;19948;-91
2023/02/12 03:57:41;;;;;;;;;;;;;;;5.43;100.00;101630.78;4976976;28;20004;-91
2023/02/12 04:00:09;;;;;;;;;;;;;;;5.46;100.00;101630.81;4978312;28;19918;-91
2023/02/12 04:02:35;;;;;;;;;;;;;;;5.50;100.00;101636.97;4993293;28;20436;-92
2023/02/12 04:05:05;;;;;;;;;;;;;;;5.52;100.00;101630.84;4995163;28;20017;-89
2023/02/12 04:07:30;;;;;;;;;;;;;;;5.55;100.00;101624.72;4976831;28;19960;-90
2023/02/12 04:09:56;;;;;;;;;;;;;;;5.58;100.00;101638.75;4975588;28;20017;-88
2023/02/12 04:12:45;;;;;;;;;;;;;;;5.60;100.00;101637.06;4993514;28;20373;-90
2023/02/12 04:15:28;;;;;;;;;;;;;;;5.62;100.00;101637.94;4976027;28;19918;-89
2023/02/12 04:18:13;;;;;;;;;;;;;;;5.67;100.00;101630.06;4993941;28;20038;-89
2023/02/12 04:20:41;;;;;;;;;;;;;;;5.68;100.00;101636.22;4993746;28;19918;-89
2023/02/12 04:23:34;;;;;;;;;;;;;;;5.72;100.00;101632.75;4992691;28;19922;-89
2023/02/12 04:26:00;;;;;;;;;;;;;;;5.74;100.00;101641.50;4992072;28;19918;-89
2023/02/12 04:28:32;;;;;;;;;;;;;;;5.76;100.00;101639.75;4976291;28;19949;-89
2023/02/12 04:30:57;;;;;;;;;;;;;;;5.79;100.00;101640.69;4992560;28;20352;-89
2023/02/12 04:33:24;;;;;;;;;;;;;;;5.81;100.00;101641.56;4992947;28;20012;-89
2023/02/12 04:35:53;;;;;;;;;;;;;;;5.82;100.00;101643.34;4992608;28;20435;-89
2023/02/12 04:38:33;;;;;;;;;;;;;;;5.84;100.00;101640.72;4992634;28;20396;-89
2023/02/12 04:40:59;;;;;;;;;;;;;;;5.88;100.00;101647.75;4991132;28;19922;-89
2023/02/12 04:43:28;;;;;;;;;;;;;;;5.89;100.00;101641.63;4992914;28;19960;-89
2023/02/12 04:45:53;;;;;;;;;;;;;;;5.91;100.00;101647.75;4993392;28;19976;-90
2023/02/12 04:48:19;;;;;;;;;;;;;;;5.93;100.00;101642.50;4993591;28;19921;-90
2023/02/12 04:50:45;;;;;;;;;;;;;;;5.95;100.00;101648.66;4993396;28;19918;-89
2023/02/12 04:53:10;;;;;;;;;;;;;;;5.97;100.00;101639.94;4975817;28;20270;-90
2023/02/12 04:55:36;;;;;;;;;;;;;;;5.98;100.00;101649.59;4991630;28;19937;-88
2023/02/12 04:58:01;;;;;;;;;;;;;;;6.00;100.00;101645.22;4993188;28;20329;-89
2023/02/12 05:00:26;;;;;;;;;;;;;;;6.04;100.00;101639.97;4993371;28;19965;-89
2023/02/12 05:02:51;;;;;;;;;;;;;;;6.05;100.00;101636.44;4993120;28;19922;-91
2023/02/12 05:05:17;;;;;;;;;;;;;;;6.05;100.00;101633.81;4973736;28;19925;-89
2023/02/12 05:07:42;;;;;;;;;;;;;;;6.06;100.00;101635.59;4992973;28;19945;-87
2023/02/12 05:10:07;;;;;;;;;;;;;;;6.07;100.00;101630.34;4991689;28;20333;-88
2023/02/12 13:58:33;;;;;;;;;;;;;;;3.11;100.00;101552.81;4990906;28;19949;-88
2023/02/12 14:01:38;;;;;;;;;;;;;;;3.17;100.00;101547.66;4992172;28;19929;-91
2023/02/12 14:04:25;;;;;;;;;;;;;;;3.12;100.00;101551.97;4939570;28;19968;-89
2023/02/12 14:07:11;;;;;;;;;;;;;;;3.08;100.00;101549.28;4974552;28;19954;-88
2023/02/12 14:09:50;;;;;;;;;;;;;;;3.10;100.00;101538.84;4995006;28;19918;-93
2023/02/12 14:12:16;;;;;;;;;;;;;;;3.15;100.00;101538.91;4995202;28;20007;-94
2023/02/12 14:14:45;;;;;;;;;;;;;;;3.10;100.00;101541.47;4996434;28;20376;-89
2023/02/12 14:17:40;;;;;;;;;;;;;;;3.11;100.00;101542.34;4978716;28;20274;-88
2023/02/12 14:20:21;;;;;;;;;;;;;;;3.07;100.00;101537.03;4954498;29;19925;-89
2023/02/12 14:22:47;;;;;;;;;;;;;;;3.12;100.00;101538.88;4930046;29;19918;-89
2023/02/12 14:25:24;;;;;;;;;;;;;;;3.14;100.00;101531.91;4953681;29;19973;-93
2023/02/12 14:27:57;;;;;;;;;;;;;;;3.15;100.00;101533.69;4954522;29;20416;-90
2023/02/12 14:30:31;;;;;;;;;;;;;;;3.06;100.00;101535.31;4954553;29;19926;-89
2023/02/12 14:33:05;;;;;;;;;;;;;;;3.21;100.00;101528.53;4954563;29;19925;-90
2023/02/12 14:35:34;;;;;;;;;;;;;;;3.38;100.00;101531.38;4954084;29;20270;-91
2023/02/12 14:38:00;;;;;;;;;;;;;;;3.54;100.00;101527.25;4954893;29;20318;-89
2023/02/12 14:40:57;;;;;;;;;;;;;;;3.99;100.00;101531.34;4953344;29;19957;-88
2023/02/12 14:43:32;;;;;;;;;;;;;;;4.35;100.00;101525.59;4948849;29;19930;-89
2023/02/12 14:46:17;;;;;;;;;;;;;;;4.57;100.00;101530.22;4994317;28;20061;-90
2023/02/12 14:48:48;;;;;;;;;;;;;;;4.72;100.00;101520.72;4995056;28;19976;-90
2023/02/12 14:51:18;;;;;;;;;;;;;;;4.81;100.00;101519.91;4977545;28;20266;-91
2023/02/12 14:53:46;;;;;;;;;;;;;;;4.93;100.00;101526.13;4994258;28;19929;-89
2023/02/12 14:56:11;;;;;;;;;;;;;;;5.00;100.00;101525.31;4990921;28;19938;-89
2023/02/12 14:58:36;;;;;;;;;;;;;;;5.05;100.00;101515.72;4976077;28;19922;-91
2023/02/12 15:01:03;;;;;;;;;;;;;;;5.13;100.00;101516.66;4976027;28;20041;-87
2023/02/12 15:03:37;;;;;;;;;;;;;;;5.19;100.00;101511.44;4976149;28;19994;-90
2023/02/12 15:06:08;;;;;;;;;;;;;;;5.22;100.00;101511.47;4975484;28;19929;-91
2023/02/12 15:08:43;;;;;;;;;;;;;;;5.29;100.00;101507.13;4975334;28;19996;-87
2023/02/12 15:11:14;;;;;;;;;;;;;;;5.33;100.00;101514.16;4974880;28;19961;-90
2023/02/12 15:13:48;;;;;;;;;;;;;;;5.37;100.00;101505.41;4958504;28;19939;-93
2023/02/12 15:16:23;;;;;;;;;;;;;;;5.41;100.00;101511.59;4976112;28;19922;-91
2023/02/12 15:18:48;;;;;;;;;;;;;;;5.44;100.00;101511.59;4975959;28;20366;-93
2023/02/12 15:21:24;;;;;;;;;;;;;;;5.48;100.00;101512.50;4975419;28;19977;-91
2023/02/12 15:27:05;;;;;;;;;;;;;;;5.55;100.00;101512.56;4965986;28;19925;-91
2023/02/12 15:29:35;;;;;;;;;;;;;;;5.59;100.00;101511.69;4973983;28;19969;-89
2023/02/12 15:32:04;;;;;;;;;;;;;;;5.60;100.00;101510.81;4975703;28;20400;-91
2023/02/12 15:34:36;;;;;;;;;;;;;;;5.62;100.00;101500.31;4978252;28;19922;-94
2023/02/12 15:37:02;;;;;;;;;;;;;;;5.66;100.00;101504.69;4975567;28;20061;-90
2023/02/12 15:39:42;;;;;;;;;;;;;;;5.69;100.00;101493.31;4975561;28;19934;-92
2023/02/12 15:42:27;;;;;;;;;;;;;;;5.71;100.00;101499.44;4974813;28;20000;-92
2023/02/12 15:45:00;;;;;;;;;;;;;;;5.73;100.00;101500.38;4969728;28;19918;-94
2023/02/12 15:47:38;;;;;;;;;;;;;;;5.77;100.00;101502.13;4975332;28;19921;-87
2023/02/12 15:50:04;;;;;;;;;;;;;;;5.78;100.00;101496.00;4959361;28;19993;-92
2023/02/12 15:52:40;;;;;;;;;;;;;;;5.80;100.00;101491.59;4965675;28;20377;-89
2023/02/12 15:55:13;;;;;;;;;;;;;;;5.83;100.00;101502.16;4972962;28;19921;-88
2023/02/12 16:00:43;;;;;;;;;;;;;;;5.85;100.00;101497.75;5493954;23;19935;-90
2023/02/12 16:03:23;;;;;;;;;;;;;;;5.88;100.00;101503.03;4948211;28;19930;-91
2023/02/12 16:05:49;;;;;;;;;;;;;;;5.90;100.00;101503.03;4964537;28;19950;-88
2023/02/12 16:08:19;;;;;;;;;;;;;;;5.93;100.00;101505.69;4964814;28;20377;-89
2023/02/12 16:10:48;;;;;;;;;;;;;;;5.93;100.00;101498.66;4964546;28;20018;-91
2023/02/12 16:13:18;;;;;;;;;;;;;;;5.96;100.00;101506.59;4965303;28;19918;-88
2023/02/12 16:18:24;;;;;;;;;;;;;;;5.99;100.00;101498.72;4991301;23;19933;-87
2023/02/12 16:24:02;;;;;;;;;;;;;;;6.03;100.00;101502.25;5200868;23;19929;-89
2023/02/12 16:26:27;;;;;;;;;;;;;;;6.05;100.00;101496.97;4990315;28;19925;-91
2023/02/12 16:28:56;;;;;;;;;;;;;;;6.06;100.00;101496.13;4993744;28;19922;-90
2023/02/12 16:31:22;;;;;;;;;;;;;;;6.08;100.00;101500.53;4993216;28;19922;-90
2023/02/12 16:37:32;;;;;;;;;;;;;;;6.11;100.00;101502.25;4896297;29;20010;-91
2023/02/12 16:39:59;;;;;;;;;;;;;;;6.13;100.00;101509.31;4929519;28;20365;-91
2023/02/12 16:42:28;;;;;;;;;;;;;;;6.13;100.00;101504.03;4993369;28;19946;-90
2023/02/12 16:44:53;;;;;;;;;;;;;;;6.16;100.00;101498.78;4976053;28;20323;-91
2023/02/12 16:47:29;;;;;;;;;;;;;;;6.16;100.00;101503.19;4975936;28;20020;-91
2023/02/12 16:50:29;;;;;;;;;;;;;;;6.20;100.00;101507.56;4993526;28;20028;-91
2023/02/12 16:53:04;;;;;;;;;;;;;;;6.21;100.00;101503.16;4992222;28;20004;-90
2023/02/12 16:55:35;;;;;;;;;;;;;;;6.23;100.00;101499.66;4991033;28;19929;-91
2023/02/12 16:58:00;;;;;;;;;;;;;;;6.24;100.00;101498.81;4991323;28;19918;-91
2023/02/12 17:00:26;;;;;;;;;;;;;;;6.25;100.00;101497.03;4993114;28;19914;-92
2023/02/12 17:02:54;;;;;;;;;;;;;;;6.26;100.00;101499.69;4975734;28;19922;-93
2023/02/12 17:05:21;;;;;;;;;;;;;;;6.29;100.00;101502.31;4992229;28;20369;-92
2023/02/12 17:07:51;;;;;;;;;;;;;;;6.29;100.00;101502.31;4992610;28;19977;-91
2023/02/12 17:10:37;;;;;;;;;;;;;;;6.30;100.00;101506.72;4974325;28;20368;-90
2023/02/12 17:13:02;;;;;;;;;;;;;;;6.31;100.00;101505.81;4992797;28;19925;-89
2023/02/12 17:16:04;;;;;;;;;;;;;;;6.32;100.00;101510.22;4975875;28;20154;-94
2023/02/12 17:18:34;;;;;;;;;;;;;;;6.35;100.00;101518.13;4971906;28;19917;-89
2023/02/12 17:21:20;;;;;;;;;;;;;;;6.36;100.00;101511.09;4991374;28;19918;-90
2023/02/12 17:23:48;;;;;;;;;;;;;;;6.36;100.00;101511.97;4981365;23;19926;-88
2023/02/12 17:26:45;;;;;;;;;;;;;;;6.39;100.00;101518.16;4991675;28;20273;-96
2023/02/12 17:29:10;;;;;;;;;;;;;;;5.88;100.00;101517.94;4969542;28;19937;-92
2023/02/12 17:32:09;;;;;;;;;;;;;;;5.23;100.00;101523.75;4992990;28;19917;-91
2023/02/12 17:34:36;;;;;;;;;;;;;;;4.96;100.00;101518.28;4972902;28;19926;-91
2023/02/12 17:40:28;;;;;;;;;;;;;;;4.68;100.00;101515.44;4925379;29;19918;-91
2023/02/12 17:46:54;;;;;;;;;;;;;;;4.48;100.00;101528.34;5018784;23;20320;-93
2023/02/12 17:49:19;;;;;;;;;;;;;;;4.40;100.00;101527.41;4929484;29;19930;-91
2023/02/12 17:51:44;;;;;;;;;;;;;;;4.30;100.00;101531.69;4933629;29;19919;-88
2023/02/12 17:54:09;;;;;;;;;;;;;;;4.24;100.00;101527.22;4979842;28;20019;-87
2023/02/12 17:56:34;;;;;;;;;;;;;;;4.23;100.00;101527.22;4993273;28;20372;-88
2023/02/12 17:59:00;;;;;;;;;;;;;;;4.16;100.00;101534.13;5013634;28;19918;-90
2023/02/12 18:01:26;;;;;;;;;;;;;;;4.15;100.00;101530.66;5017873;28;20491;-93
2023/02/12 18:03:52;;;;;;;;;;;;;;;4.04;100.00;101529.66;5017928;28;19921;-94
2023/02/12 18:06:21;;;;;;;;;;;;;;;4.04;100.00;101539.22;5013570;28;19933;-94
2023/02/12 18:08:46;;;;;;;;;;;;;;;3.94;100.00;101538.25;5012832;28;19932;-88
2023/02/12 18:11:46;;;;;;;;;;;;;;;3.95;100.00;101542.66;5011645;28;19918;-85
2023/02/12 18:14:11;;;;;;;;;;;;;;;3.92;100.00;101539.97;5011958;28;19921;-88
2023/02/12 18:16:36;;;;;;;;;;;;;;;3.90;100.00;101546.97;4995170;28;19921;-93
2023/02/12 18:21:59;;;;;;;;;;;;;;;3.77;100.00;101552.03;5388757;23;20373;-91
2023/02/12 18:38:26;;;;;;;;;;;;;;;3.57;100.00;101543.00;5091534;23;19925;-92
2023/02/12 18:40:55;;;;;;;;;;;;;;;3.56;100.00;101541.28;4991928;28;20276;-90
2023/02/12 18:43:20;;;;;;;;;;;;;;;3.51;100.00;101542.91;5012570;28;19917;-91
2023/02/12 18:45:46;;;;;;;;;;;;;;;3.51;100.00;101545.53;5010548;28;19967;-90
2023/02/12 18:48:22;;;;;;;;;;;;;;;3.52;100.00;101544.69;4993656;28;19917;-93
2023/02/12 18:51:19;;;;;;;;;;;;;;;3.45;100.00;101544.59;4992563;28;19922;-90
2023/02/12 18:53:45;;;;;;;;;;;;;;;3.41;100.00;101550.66;5011074;28;19922;-91
2023/02/12 18:56:11;;;;;;;;;;;;;;;3.42;100.00;101552.41;4996262;28;20032;-91
2023/02/12 18:58:36;;;;;;;;;;;;;;;3.47;100.00;101554.25;4994826;28;19992;-90
2023/02/12 19:01:13;;;;;;;;;;;;;;;3.41;100.00;101555.88;5013011;28;19921;-88
2023/02/12 19:03:48;;;;;;;;;;;;;;;3.39;100.00;101549.75;5014295;28;19927;-91
2023/02/12 19:06:24;;;;;;;;;;;;;;;3.35;100.00;101553.22;5012764;28;20011;-90
2023/02/12 19:08:55;;;;;;;;;;;;;;;3.33;100.00;101544.41;5011464;28;20005;-89
2023/02/12 19:11:20;;;;;;;;;;;;;;;3.32;100.00;101545.28;4992425;28;20392;-89
2023/02/12 19:13:46;;;;;;;;;;;;;;;3.34;100.00;101548.81;5014031;28;19968;-91
2023/02/12 19:16:24;;;;;;;;;;;;;;;3.34;100.00;101548.81;5014369;28;19925;-92
2023/02/12 19:18:54;;;;;;;;;;;;;;;3.31;100.00;101546.16;4996781;28;19924;-88
2023/02/12 19:21:49;;;;;;;;;;;;;;;;;;;;;
2023/02/12 19:25:09;;;;;;;;;;;;;;;;;;;;;
2023/02/12 19:27:47;;;;;;;;;;;;;;;3.25;100.00;101551.28;5008834;28;20411;-86
2023/02/12 19:30:38;;;;;;;;;;;;;;;3.25;100.00;101546.03;5010226;28;19936;-90
2023/02/12 19:33:29;;;;;;;;;;;;;;;3.27;100.00;101544.31;5009917;28;19928;-89
2023/02/12 19:36:02;;;;;;;;;;;;;;;3.30;100.00;101538.25;5012114;28;19921;-86
2023/02/12 19:38:35;;;;;;;;;;;;;;;3.27;100.00;101549.56;5014323;28;19925;-88
2023/02/12 19:41:39;;;;;;;;;;;;;;;3.21;100.00;101545.13;5012932;28;19921;-91
2023/02/12 19:47:04;;;;;;;;;;;;;;;;;;;;;
2023/02/12 19:49:45;;;;;;;;;;;;;;;3.21;100.00;101541.63;4939046;29;19926;-89
2023/02/12 19:52:14;;;;;;;;;;;;;;;3.18;100.00;101545.06;4923353;29;19927;-89
2023/02/12 20:01:16;;;;;;;;;;;;;;;;;;;;;
2023/02/12 20:04:36;;;;;;;;;;;;;;;;;;;;;
2023/02/12 20:07:13;;;;;;;;;;;;;;;;;;;;;
2023/02/12 20:18:33;;;;;;;;;;;;;;;;;;;;;
2023/02/12 20:24:10;;;;;;;;;;;;;;;;;;;;;
2023/02/12 20:27:15;;;;;;;;;;;;;;;;;;;;;
2023/02/12 20:33:13;;;;;;;;;;;;;;;;;;;;;
2023/02/12 20:35:42;;;;;;;;;;;;;;;4.90;100.00;101534.88;4955604;28;19922;-89
2023/02/12 20:38:10;;;;;;;;;;;;;;;4.98;100.00;101540.16;4979245;28;19928;-89
2023/02/12 20:40:38;;;;;;;;;;;;;;;5.05;100.00;101536.75;4944056;28;19941;-89
2023/02/12 20:43:08;;;;;;;;;;;;;;;5.11;100.00;101536.78;4963027;28;19962;-88
2023/02/12 20:45:34;;;;;;;;;;;;;;;5.15;100.00;101541.19;4944798;28;20002;-89
2023/02/12 20:48:07;;;;;;;;;;;;;;;5.21;100.00;101535.09;4943797;28;20005;-88
2023/02/12 20:50:37;;;;;;;;;;;;;;;5.23;100.00;101534.25;4979526;28;19930;-89
2023/02/12 20:53:19;;;;;;;;;;;;;;;5.28;100.00;101540.44;4976918;28;19926;-89
2023/02/12 20:55:49;;;;;;;;;;;;;;;5.34;100.00;101542.19;4976325;28;19928;-89
2023/02/12 20:58:19;;;;;;;;;;;;;;;5.37;100.00;101534.34;4978671;28;19917;-88
2023/02/12 21:00:49;;;;;;;;;;;;;;;5.40;100.00;101541.38;4977422;28;19973;-88
2023/02/12 21:03:20;;;;;;;;;;;;;;;5.42;100.00;101545.75;4961797;28;19918;-88
2023/02/12 21:05:48;;;;;;;;;;;;;;;5.45;100.00;101543.16;4977728;28;19918;-89
2023/02/12 21:08:16;;;;;;;;;;;;;;;5.51;100.00;101541.44;4976970;28;20391;-89
2023/02/12 21:10:41;;;;;;;;;;;;;;;5.52;100.00;101540.56;4959286;28;19933;-88
2023/02/12 21:13:09;;;;;;;;;;;;;;;5.55;100.00;101538.84;4988180;28;19918;-88
2023/02/12 21:15:34;;;;;;;;;;;;;;;5.57;100.00;101539.72;4977818;28;20420;-89
2023/02/12 21:17:59;;;;;;;;;;;;;;;5.59;100.00;101543.22;4973510;28;19926;-88
2023/02/12 21:20:45;;;;;;;;;;;;;;;5.63;100.00;101545.03;4978624;28;20352;-88
2023/02/12 21:23:39;;;;;;;;;;;;;;;5.64;100.00;101549.38;4958003;28;19925;-90
2023/02/12 21:26:08;;;;;;;;;;;;;;;5.67;100.00;101545.03;4945697;28;20010;-90
2023/02/12 21:29:09;;;;;;;;;;;;;;;5.69;100.00;101541.53;4976434;28;19921;-88
2023/02/12 21:32:00;;;;;;;;;;;;;;;5.72;100.00;101538.91;4964853;28;19978;-91
2023/02/12 21:34:25;;;;;;;;;;;;;;;5.74;100.00;101545.06;4962893;28;19965;-87
2023/02/12 21:36:57;;;;;;;;;;;;;;;5.77;100.00;101536.31;4980943;28;19992;-87
2023/02/12 21:39:51;;;;;;;;;;;;;;;5.79;100.00;101540.72;4962100;28;20461;-88
2023/02/12 21:42:34;;;;;;;;;;;;;;;5.82;100.00;101539.84;4973537;28;20293;-89
2023/02/12 21:45:05;;;;;;;;;;;;;;;5.83;100.00;101534.59;4970728;28;20013;-88
2023/02/12 21:47:40;;;;;;;;;;;;;;;5.83;100.00;101531.94;4976720;28;19922;-87
2023/02/12 21:50:13;;;;;;;;;;;;;;;5.88;100.00;101536.38;4956451;28;19932;-88
2023/02/12 21:52:41;;;;;;;;;;;;;;;5.90;100.00;101538.13;4971734;28;20297;-89
2023/02/12 21:55:11;;;;;;;;;;;;;;;5.91;100.00;101533.75;4975711;28;19926;-89
2023/02/12 21:57:37;;;;;;;;;;;;;;;5.92;100.00;101531.13;4979468;28;19933;-91
2023/02/12 22:00:02;;;;;;;;;;;;;;;5.94;100.00;101544.28;4962840;28;20401;-88
2023/02/12 22:02:28;;;;;;;;;;;;;;;5.95;100.00;101535.50;4970832;28;19922;-90
2023/02/12 22:04:53;;;;;;;;;;;;;;;5.96;100.00;101534.66;4961277;28;19926;-90
2023/02/12 22:07:19;;;;;;;;;;;;;;;5.98;100.00;101531.19;4960674;28;20389;-89
2023/02/12 22:09:45;;;;;;;;;;;;;;;6.00;100.00;101531.19;4977618;28;19932;-90
2023/02/12 22:12:19;;;;;;;;;;;;;;;6.01;100.00;101530.31;4971617;28;19926;-89
2023/02/12 22:14:47;;;;;;;;;;;;;;;6.04;100.00;101534.72;4938610;29;19930;-90
2023/02/12 22:17:13;;;;;;;;;;;;;;;6.05;100.00;101532.09;4940270;29;20331;-89
2023/02/12 22:19:40;;;;;;;;;;;;;;;6.07;100.00;101529.47;4939234;29;19926;-89
2023/02/12 22:22:06;;;;;;;;;;;;;;;6.07;100.00;101524.19;4941107;29;20413;-90
2023/02/12 22:24:36;;;;;;;;;;;;;;;6.09;100.00;101527.72;4937658;29;19954;-89
2023/02/12 22:27:02;;;;;;;;;;;;;;;6.09;100.00;101531.22;4940006;29;19927;-89
2023/02/12 22:29:27;;;;;;;;;;;;;;;6.12;100.00;101527.72;4925695;29;19930;-88
2023/02/12 22:31:55;;;;;;;;;;;;;;;6.14;100.00;101528.59;4943976;29;19926;-89
2023/02/12 22:34:50;;;;;;;;;;;;;;;;;;;;;
2023/02/12 22:37:29;;;;;;;;;;;;;;;6.17;100.00;101528.59;4944013;29;19929;-88
2023/02/12 22:40:05;;;;;;;;;;;;;;;6.18;100.00;101538.28;4941361;29;19922;-89
2023/02/12 22:42:53;;;;;;;;;;;;;;;6.18;100.00;101536.50;4939296;29;20294;-89
2023/02/12 22:45:54;;;;;;;;;;;;;;;;;;;;;
2023/02/12 22:48:23;;;;;;;;;;;;;;;6.23;100.00;101540.91;4938920;28;19926;-88
2023/02/12 22:51:09;;;;;;;;;;;;;;;;;;;;;
2023/02/12 22:53:47;;;;;;;;;;;;;;;;;;;;;
2023/02/12 22:56:18;;;;;;;;;;;;;;;6.27;100.00;101542.66;4957912;28;20293;-89
2023/02/12 22:58:44;;;;;;;;;;;;;;;6.27;100.00;101538.31;4962912;28;20448;-90
2023/02/12 23:01:11;;;;;;;;;;;;;;;6.27;100.00;101538.31;4956598;28;19922;-89
2023/02/12 23:03:40;;;;;;;;;;;;;;;6.28;100.00;101542.66;4944815;28;19937;-89
2023/02/12 23:06:15;;;;;;;;;;;;;;;6.29;100.00;101539.19;4944568;28;19919;-90
2023/02/12 23:08:41;;;;;;;;;;;;;;;6.30;100.00;101543.56;4951899;28;20299;-89
2023/02/12 23:11:07;;;;;;;;;;;;;;;6.31;100.00;101550.59;4947958;28;20006;-89
2023/02/12 23:14:01;;;;;;;;;;;;;;;6.33;100.00;101543.59;4958674;28;20278;-88
2023/02/12 23:16:49;;;;;;;;;;;;;;;6.34;100.00;101547.97;4955815;28;19922;-90
2023/02/12 23:19:16;;;;;;;;;;;;;;;6.28;100.00;101549.69;4960637;28;20004;-89
2023/02/12 23:21:50;;;;;;;;;;;;;;;5.38;100.00;101548.38;4973407;28;19925;-89
2023/02/12 23:24:26;;;;;;;;;;;;;;;5.02;100.00;101545.47;4969115;28;20297;-90
2023/02/12 23:26:56;;;;;;;;;;;;;;;4.84;100.00;101550.59;4971856;28;19927;-89
2023/02/12 23:29:22;;;;;;;;;;;;;;;4.75;100.00;101545.25;4979325;28;20008;-90
2023/02/12 23:31:52;;;;;;;;;;;;;;;4.65;100.00;101552.16;4969469;28;20518;-88
2023/02/12 23:34:20;;;;;;;;;;;;;;;4.54;100.00;101550.28;4969755;28;19929;-88
2023/02/12 23:36:45;;;;;;;;;;;;;;;4.45;100.00;101546.69;4960754;28;20009;-88
2023/02/12 23:39:15;;;;;;;;;;;;;;;4.40;100.00;101541.41;4975336;28;20008;-88
2023/02/12 23:41:41;;;;;;;;;;;;;;;4.29;100.00;101540.41;4976675;28;20020;-89
2023/02/12 23:44:11;;;;;;;;;;;;;;;4.29;100.00;101541.31;4952838;28;20009;-89
2023/02/12 23:46:37;;;;;;;;;;;;;;;4.24;100.00;101540.34;4970971;28;19949;-89
2023/02/12 23:49:02;;;;;;;;;;;;;;;4.17;100.00;101535.91;4961582;28;19926;-88
2023/02/12 23:51:27;;;;;;;;;;;;;;;4.08;100.00;101534.03;4969632;28;19933;-87
2023/02/12 23:53:55;;;;;;;;;;;;;;;4.05;100.00;101536.63;4968316;28;19926;-88
2023/02/12 23:56:21;;;;;;;;;;;;;;;3.99;100.00;101534.84;4971637;28;19922;-88
2023/02/12 23:58:46;;;;;;;;;;;;;;;3.99;100.00;101531.34;4954308;28;19982;-89
